Time;durP1;ratioP1;P1;durP2;ratioP2;P2;SDS_P1;SDS_P2;PMS_P1;PMS_P2;Temp;Humidity;BMP_temperature;BMP_pressure;BME280_temperature;BME280_humidity;BME280_pressure;Samples;Min_cycle;Max_cycle;Signal;HPM_P1;HPM_P2
2023/11/30 00:00:10;;;;;;;9.18;6.90;;;1.40;99.90;;;;;;494019;241;27534;-73
2023/11/30 00:02:11;;;;;;;8.23;6.45;;;1.40;99.90;;;;;;493975;241;28011;-71
2023/11/30 00:04:13;;;;;;;11.90;7.62;;;1.40;99.90;;;;;;493966;241;27977;-72
2023/11/30 00:06:14;;;;;;;8.80;6.53;;;1.40;99.90;;;;;;494058;241;27957;-72
2023/11/30 00:08:15;;;;;;;9.98;6.70;;;1.40;99.90;;;;;;493988;241;28103;-72
2023/11/30 00:10:16;;;;;;;6.35;5.70;;;1.50;99.90;;;;;;493988;241;27501;-72
2023/11/30 00:12:18;;;;;;;8.73;7.20;;;1.40;99.90;;;;;;493975;241;27482;-72
2023/11/30 00:14:19;;;;;;;10.23;7.20;;;1.50;99.90;;;;;;493990;237;27616;-73
2023/11/30 00:16:20;;;;;;;10.32;6.90;;;1.50;99.90;;;;;;493979;241;27505;-72
2023/11/30 00:18:21;;;;;;;11.50;7.68;;;1.50;99.90;;;;;;493994;241;27495;-72
2023/11/30 00:20:23;;;;;;;9.50;6.43;;;1.50;99.90;;;;;;494094;241;27482;-72
2023/11/30 00:22:24;;;;;;;10.35;7.05;;;1.50;99.90;;;;;;493976;241;27454;-72
2023/11/30 00:24:25;;;;;;;12.63;7.62;;;1.50;99.90;;;;;;493958;241;27582;-72
2023/11/30 00:26:26;;;;;;;11.23;7.20;;;1.50;99.90;;;;;;493914;241;28086;-73
2023/11/30 00:28:28;;;;;;;9.63;6.50;;;1.50;99.90;;;;;;493999;241;27995;-72
2023/11/30 00:30:29;;;;;;;9.15;7.00;;;1.40;99.90;;;;;;493983;241;27972;-73
2023/11/30 00:32:30;;;;;;;10.30;6.93;;;1.40;99.90;;;;;;494006;241;27516;-72
2023/11/30 00:34:31;;;;;;;8.65;6.62;;;1.40;99.90;;;;;;494031;241;27509;-72
2023/11/30 00:36:33;;;;;;;8.23;6.25;;;1.40;99.90;;;;;;494080;241;27504;-73
2023/11/30 00:38:34;;;;;;;10.75;6.97;;;1.40;99.90;;;;;;493980;241;27564;-72
2023/11/30 00:40:37;;;;;;;8.20;5.90;;;1.30;99.90;;;;;;493940;241;27542;-72
2023/11/30 00:42:36;;;;;;;6.75;5.12;;;1.30;99.90;;;;;;493803;241;27575;-72
2023/11/30 00:44:38;;;;;;;12.52;6.60;;;1.30;99.90;;;;;;493996;241;27490;-72
2023/11/30 00:46:39;;;;;;;6.53;5.50;;;1.30;99.90;;;;;;493987;241;27520;-72
2023/11/30 00:48:40;;;;;;;5.37;4.82;;;1.30;99.90;;;;;;493929;241;27609;-71
2023/11/30 00:50:42;;;;;;;6.78;4.60;;;1.20;99.90;;;;;;493963;237;27985;-72
2023/11/30 00:52:43;;;;;;;8.55;5.72;;;1.30;99.90;;;;;;494001;241;28884;-72
2023/11/30 00:54:44;;;;;;;7.95;5.75;;;1.20;99.90;;;;;;494006;241;28084;-72
2023/11/30 00:56:45;;;;;;;8.05;5.50;;;1.20;99.90;;;;;;494013;241;28005;-73
2023/11/30 00:58:47;;;;;;;7.90;5.50;;;1.20;99.90;;;;;;494077;241;27556;-71
2023/11/30 01:00:48;;;;;;;7.47;5.05;;;1.20;99.90;;;;;;494018;241;27479;-72
2023/11/30 01:02:49;;;;;;;6.50;5.03;;;1.20;99.90;;;;;;494071;241;27522;-73
2023/11/30 01:04:50;;;;;;;5.93;5.28;;;1.20;99.90;;;;;;494074;241;27540;-72
2023/11/30 01:06:52;;;;;;;5.53;5.00;;;1.20;99.90;;;;;;494030;241;27529;-71
2023/11/30 01:08:53;;;;;;;5.60;4.60;;;1.20;99.90;;;;;;494071;241;27616;-72
2023/11/30 01:10:54;;;;;;;6.47;4.70;;;1.20;99.90;;;;;;494083;241;27519;-72
2023/11/30 01:12:55;;;;;;;4.78;4.30;;;1.20;99.90;;;;;;494077;241;27510;-73
2023/11/30 01:14:57;;;;;;;5.07;4.47;;;1.20;99.90;;;;;;494064;241;27465;-72
2023/11/30 01:16:58;;;;;;;5.53;4.65;;;1.20;99.90;;;;;;494025;241;27521;-72
2023/11/30 01:18:59;;;;;;;4.97;4.43;;;1.20;99.90;;;;;;494062;240;27478;-72
2023/11/30 01:21:00;;;;;;;7.57;5.78;;;1.20;99.90;;;;;;494032;241;27984;-72
2023/11/30 01:23:02;;;;;;;23.40;12.23;;;1.20;99.90;;;;;;493992;241;28004;-73
2023/11/30 01:25:03;;;;;;;25.27;12.65;;;1.20;99.90;;;;;;493957;241;27549;-72
2023/11/30 01:27:04;;;;;;;18.08;10.25;;;1.20;99.90;;;;;;494001;241;27527;-72
2023/11/30 01:29:05;;;;;;;12.68;7.55;;;1.10;99.90;;;;;;494082;241;27704;-71
2023/11/30 01:31:07;;;;;;;8.75;6.25;;;1.10;99.90;;;;;;493971;241;27483;-72
2023/11/30 01:33:08;;;;;;;7.07;5.40;;;1.00;99.90;;;;;;494023;241;27643;-72
2023/11/30 01:35:09;;;;;;;7.87;5.62;;;1.00;99.90;;;;;;493997;241;27488;-72
2023/11/30 01:37:10;;;;;;;7.47;5.22;;;1.00;99.90;;;;;;494076;240;27542;-71
2023/11/30 01:39:14;;;;;;;8.00;5.25;;;1.00;99.90;;;;;;494021;241;27509;-73
2023/11/30 01:41:13;;;;;;;6.70;5.22;;;0.90;99.90;;;;;;493826;237;27983;-71
2023/11/30 01:43:14;;;;;;;5.70;4.90;;;0.90;99.90;;;;;;494093;241;27516;-72
2023/11/30 01:45:15;;;;;;;10.57;5.18;;;0.90;99.90;;;;;;494098;241;27456;-72
2023/11/30 01:47:17;;;;;;;5.78;4.50;;;0.80;99.90;;;;;;494087;241;27481;-72
2023/11/30 01:49:18;;;;;;;5.78;5.00;;;0.80;99.90;;;;;;494137;241;27609;-72
2023/11/30 01:51:19;;;;;;;7.53;5.37;;;0.80;99.90;;;;;;494026;241;27532;-71
2023/11/30 01:53:20;;;;;;;6.97;6.15;;;0.80;99.90;;;;;;494015;241;27886;-73
2023/11/30 01:55:22;;;;;;;4.65;4.20;;;0.70;99.90;;;;;;494011;241;27505;-73
2023/11/30 01:57:23;;;;;;;6.80;5.45;;;0.70;99.90;;;;;;494041;241;27868;-71
2023/11/30 01:59:24;;;;;;;7.47;6.05;;;0.80;99.90;;;;;;493993;241;27618;-72
2023/11/30 02:01:28;;;;;;;5.30;4.75;;;0.90;99.90;;;;;;494085;241;27554;-72
2023/11/30 02:03:27;;;;;;;5.78;5.00;;;0.90;99.90;;;;;;493892;241;27962;-72
2023/11/30 02:05:28;;;;;;;5.93;4.78;;;0.90;99.90;;;;;;494080;241;28101;-73
2023/11/30 02:07:29;;;;;;;10.30;5.97;;;0.90;99.90;;;;;;494007;241;28005;-71
2023/11/30 02:09:30;;;;;;;8.70;6.03;;;0.80;99.90;;;;;;494082;241;28037;-72
2023/11/30 02:11:32;;;;;;;8.43;6.15;;;0.90;99.90;;;;;;494050;241;27545;-71
2023/11/30 02:13:33;;;;;;;8.63;6.22;;;0.90;99.90;;;;;;494086;241;27514;-71
2023/11/30 02:15:34;;;;;;;7.15;6.15;;;0.90;99.90;;;;;;494098;241;27497;-73
2023/11/30 02:17:35;;;;;;;7.57;5.40;;;1.00;99.90;;;;;;494103;241;27457;-71
2023/11/30 02:19:37;;;;;;;5.78;5.20;;;1.00;99.90;;;;;;494094;241;27515;-72
2023/11/30 02:21:38;;;;;;;6.07;5.47;;;1.00;99.90;;;;;;494087;241;27489;-71
2023/11/30 02:23:39;;;;;;;8.40;5.82;;;1.00;99.90;;;;;;494062;241;27475;-71
2023/11/30 02:25:40;;;;;;;5.82;5.05;;;1.10;99.90;;;;;;494113;241;27520;-71
2023/11/30 02:27:42;;;;;;;10.95;6.35;;;1.00;99.90;;;;;;494088;241;27552;-71
2023/11/30 02:29:43;;;;;;;10.43;6.57;;;1.00;99.90;;;;;;494058;241;27469;-71
2023/11/30 02:31:44;;;;;;;6.68;5.62;;;1.00;99.90;;;;;;494074;241;28145;-71
2023/11/30 02:33:45;;;;;;;10.15;7.32;;;1.00;99.90;;;;;;494074;241;28071;-71
2023/11/30 02:35:47;;;;;;;8.95;6.50;;;1.00;99.90;;;;;;494113;241;27977;-71
2023/11/30 02:37:48;;;;;;;7.22;6.12;;;1.00;99.90;;;;;;494092;240;27538;-72
2023/11/30 02:39:49;;;;;;;6.85;5.25;;;1.10;99.90;;;;;;494047;241;27600;-71
2023/11/30 02:41:50;;;;;;;7.62;5.50;;;1.10;99.90;;;;;;493988;241;27543;-71
2023/11/30 02:43:52;;;;;;;6.78;4.62;;;1.10;99.90;;;;;;493986;237;27475;-72
2023/11/30 02:45:53;;;;;;;6.93;5.15;;;1.10;99.90;;;;;;494100;241;27498;-72
2023/11/30 02:47:54;;;;;;;8.43;6.12;;;1.10;99.90;;;;;;494052;241;27474;-71
2023/11/30 02:49:55;;;;;;;6.97;4.90;;;1.10;99.90;;;;;;493979;241;27612;-71
2023/11/30 02:51:57;;;;;;;6.05;4.95;;;1.00;99.90;;;;;;494014;241;27504;-71
2023/11/30 02:53:58;;;;;;;7.20;5.43;;;1.10;99.90;;;;;;493999;241;27549;-71
2023/11/30 02:56:00;;;;;;;6.65;5.10;;;1.10;99.90;;;;;;494019;241;27660;-70
2023/11/30 02:58:00;;;;;;;6.35;5.30;;;1.10;99.90;;;;;;493894;239;28799;-71
2023/11/30 03:00:02;;;;;;;4.95;4.37;;;1.10;99.90;;;;;;494095;241;27976;-72
2023/11/30 03:02:03;;;;;;;9.15;5.12;;;1.10;99.90;;;;;;494005;241;27999;-72
2023/11/30 03:04:04;;;;;;;6.00;4.82;;;1.10;99.90;;;;;;493996;241;27947;-71
2023/11/30 03:06:05;;;;;;;5.43;4.40;;;1.20;99.90;;;;;;493988;241;27596;-74
2023/11/30 03:08:07;;;;;;;5.28;4.68;;;1.20;99.90;;;;;;493987;241;27505;-71
2023/11/30 03:10:08;;;;;;;7.15;5.32;;;1.20;99.90;;;;;;494095;241;27460;-72
2023/11/30 03:12:09;;;;;;;8.88;6.15;;;1.20;99.90;;;;;;494024;241;27525;-72
2023/11/30 03:14:10;;;;;;;8.85;6.60;;;1.20;99.90;;;;;;493995;241;27493;-71
2023/11/30 03:16:12;;;;;;;15.15;9.60;;;1.10;99.90;;;;;;493993;241;27520;-71
2023/11/30 03:18:13;;;;;;;17.35;9.23;;;1.10;99.90;;;;;;494097;241;27858;-73
2023/11/30 03:20:14;;;;;;;13.20;9.30;;;1.10;99.90;;;;;;494096;241;27480;-72
2023/11/30 03:22:15;;;;;;;14.40;9.90;;;1.10;99.90;;;;;;494065;241;27542;-72
2023/11/30 03:24:17;;;;;;;14.93;9.40;;;1.10;99.90;;;;;;494040;241;27547;-71
2023/11/30 03:26:18;;;;;;;15.77;8.32;;;1.10;99.90;;;;;;494065;241;27591;-72
2023/11/30 03:28:19;;;;;;;9.45;6.62;;;1.10;99.90;;;;;;493947;241;27472;-73
2023/11/30 03:30:20;;;;;;;8.63;6.55;;;1.10;99.90;;;;;;493920;241;27516;-71
2023/11/30 03:32:22;;;;;;;11.60;7.28;;;1.10;99.90;;;;;;493899;241;27505;-71
2023/11/30 03:34:23;;;;;;;10.45;6.80;;;1.00;99.90;;;;;;494000;237;28822;-71
2023/11/30 03:36:24;;;;;;;10.60;6.82;;;1.00;99.90;;;;;;494007;241;28008;-71
2023/11/30 03:38:25;;;;;;;9.45;6.65;;;1.00;99.90;;;;;;493758;241;28039;-73
2023/11/30 03:40:27;;;;;;;8.30;6.20;;;1.00;99.90;;;;;;493933;241;27553;-71
2023/11/30 03:42:28;;;;;;;7.45;5.70;;;1.00;99.90;;;;;;493944;241;27542;-72
2023/11/30 03:44:29;;;;;;;6.03;4.80;;;1.00;99.90;;;;;;494057;241;27567;-72
2023/11/30 03:46:30;;;;;;;6.62;5.75;;;1.00;99.90;;;;;;494059;241;27522;-71
2023/11/30 03:48:32;;;;;;;7.70;5.22;;;0.90;99.90;;;;;;494040;241;27517;-71
2023/11/30 03:50:33;;;;;;;8.05;5.32;;;0.90;99.90;;;;;;493990;237;27587;-71
2023/11/30 03:52:34;;;;;;;6.00;4.22;;;0.90;99.90;;;;;;493969;241;27509;-71
2023/11/30 03:54:35;;;;;;;4.60;4.20;;;0.90;99.90;;;;;;494000;241;27495;-72
2023/11/30 03:56:37;;;;;;;7.30;5.28;;;0.90;99.90;;;;;;494065;241;27466;-71
2023/11/30 03:58:38;;;;;;;6.90;5.07;;;0.80;99.90;;;;;;493970;241;27520;-71
2023/11/30 04:00:39;;;;;;;6.10;5.50;;;0.70;99.90;;;;;;493972;241;27469;-71
2023/11/30 04:02:42;;;;;;;6.20;4.87;;;0.70;99.90;;;;;;493981;241;28066;-72
2023/11/30 04:04:42;;;;;;;4.85;4.35;;;0.70;99.90;;;;;;493920;241;27982;-72
2023/11/30 04:06:43;;;;;;;5.43;4.70;;;0.70;99.90;;;;;;494078;237;27463;-71
2023/11/30 04:08:44;;;;;;;6.35;4.95;;;0.60;99.90;;;;;;494021;241;27614;-71
2023/11/30 04:10:45;;;;;;;8.40;5.30;;;0.60;99.90;;;;;;494025;241;27677;-71
2023/11/30 04:12:47;;;;;;;5.28;4.75;;;0.60;99.90;;;;;;494027;241;27548;-71
2023/11/30 04:14:48;;;;;;;14.00;5.25;;;0.50;99.90;;;;;;494064;241;27494;-72
2023/11/30 04:16:49;;;;;;;7.05;4.72;;;0.50;99.90;;;;;;494075;241;27474;-71
2023/11/30 04:18:50;;;;;;;5.60;5.05;;;0.50;99.90;;;;;;494022;241;27497;-71
2023/11/30 04:20:52;;;;;;;5.10;4.60;;;0.40;99.90;;;;;;494038;241;27867;-73
2023/11/30 04:22:53;;;;;;;5.05;4.55;;;0.50;99.90;;;;;;494049;241;27552;-71
2023/11/30 04:24:54;;;;;;;5.07;4.15;;;0.40;99.90;;;;;;494032;241;27963;-73
2023/11/30 04:26:55;;;;;;;4.82;3.95;;;0.40;99.90;;;;;;493981;241;28044;-71
2023/11/30 04:28:57;;;;;;;5.20;3.72;;;0.30;99.90;;;;;;493974;241;27986;-71
2023/11/30 04:30:58;;;;;;;15.90;6.05;;;0.30;99.90;;;;;;494032;237;28004;-71
2023/11/30 04:32:59;;;;;;;15.93;5.55;;;0.30;99.90;;;;;;494064;241;27537;-71
2023/11/30 04:35:00;;;;;;;49.20;6.28;;;0.30;99.90;;;;;;494015;241;27513;-70
2023/11/30 04:37:02;;;;;;;16.27;4.78;;;0.20;99.90;;;;;;494088;241;27532;-71
2023/11/30 04:39:04;;;;;;;13.68;4.80;;;0.10;99.90;;;;;;494079;241;27455;-73
2023/11/30 04:41:04;;;;;;;9.38;4.10;;;0.20;99.90;;;;;;494039;241;27523;-71
2023/11/30 04:43:06;;;;;;;7.78;4.20;;;0.20;99.90;;;;;;494073;241;27465;-71
2023/11/30 04:45:07;;;;;;;3.90;3.55;;;0.10;99.90;;;;;;494059;241;27505;-71
2023/11/30 04:47:08;;;;;;;8.05;4.00;;;0.10;99.90;;;;;;494074;241;27526;-73
2023/11/30 04:49:09;;;;;;;9.13;5.30;;;0.10;99.90;;;;;;493974;241;28078;-71
2023/11/30 04:51:11;;;;;;;13.43;4.35;;;0.10;99.90;;;;;;493979;241;28018;-71
2023/11/30 04:53:12;;;;;;;5.72;4.60;;;0.00;99.90;;;;;;493984;241;29010;-71
2023/11/30 04:55:13;;;;;;;26.30;6.90;;;0.00;99.90;;;;;;493961;241;28004;-73
2023/11/30 04:57:14;;;;;;;15.38;6.03;;;-0.10;99.90;;;;;;493988;241;27514;-71
2023/11/30 04:59:16;;;;;;;13.25;4.87;;;-0.10;99.90;;;;;;493992;241;27548;-71
2023/11/30 05:01:17;;;;;;;24.70;6.20;;;-0.10;99.90;;;;;;493989;241;27514;-71
2023/11/30 05:03:18;;;;;;;9.40;4.95;;;-0.10;99.90;;;;;;493984;241;27476;-71
2023/11/30 05:05:19;;;;;;;22.20;4.55;;;-0.10;99.90;;;;;;493971;241;27560;-71
2023/11/30 05:07:21;;;;;;;17.87;5.85;;;-0.10;99.90;;;;;;493961;241;27516;-71
2023/11/30 05:09:22;;;;;;;9.15;4.60;;;-0.10;99.90;;;;;;493951;241;29065;-71
2023/11/30 05:11:23;;;;;;;6.30;4.62;;;-0.10;99.90;;;;;;493941;241;27509;-71
2023/11/30 05:13:24;;;;;;;7.28;4.40;;;-0.10;99.90;;;;;;493970;241;27524;-71
2023/11/30 05:15:26;;;;;;;4.28;3.55;;;-0.10;99.90;;;;;;493976;241;27478;-71
2023/11/30 05:17:27;;;;;;;4.87;4.20;;;-0.10;99.90;;;;;;494080;241;27505;-71
2023/11/30 05:19:28;;;;;;;4.07;3.60;;;-0.10;99.90;;;;;;494036;241;27514;-71
2023/11/30 05:21:29;;;;;;;4.40;4.05;;;-0.10;99.90;;;;;;494077;241;27496;-71
2023/11/30 05:23:31;;;;;;;4.45;4.05;;;0.00;99.90;;;;;;494102;241;27522;-71
2023/11/30 05:25:35;;;;;;;5.70;3.30;;;-0.10;99.90;;;;;;494061;241;27478;-71
2023/11/30 05:27:36;;;;;;;3.80;3.40;;;-0.10;99.90;;;;;;493971;241;27550;-71
2023/11/30 05:29:38;;;;;;;3.85;3.30;;;-0.10;99.90;;;;;;493973;241;27973;-70
2023/11/30 05:31:39;;;;;;;3.95;3.30;;;-0.10;99.90;;;;;;493987;241;28130;-71
2023/11/30 05:33:40;;;;;;;5.75;3.30;;;-0.20;99.90;;;;;;494009;241;27999;-71
2023/11/30 05:35:41;;;;;;;24.30;5.55;;;-0.20;99.90;;;;;;493987;241;27513;-71
2023/11/30 05:37:43;;;;;;;38.83;4.25;;;-0.10;99.90;;;;;;493961;241;27527;-71
2023/11/30 05:39:44;;;;;;;4.28;3.83;;;-0.20;99.90;;;;;;494080;241;27481;-70
2023/11/30 05:41:45;;;;;;;4.35;3.95;;;-0.20;99.90;;;;;;493970;241;27630;-71
2023/11/30 05:43:46;;;;;;;4.90;3.83;;;-0.20;99.90;;;;;;493975;237;27529;-71
2023/11/30 05:45:48;;;;;;;5.15;4.03;;;-0.20;99.90;;;;;;493926;241;27547;-71
2023/11/30 05:47:49;;;;;;;6.78;4.62;;;-0.30;99.90;;;;;;493976;241;27986;-72
2023/11/30 05:49:50;;;;;;;7.35;4.60;;;-0.30;99.90;;;;;;494057;241;28103;-71
2023/11/30 05:51:51;;;;;;;7.35;4.90;;;-0.30;99.90;;;;;;494071;241;29111;-72
2023/11/30 05:53:53;;;;;;;9.32;5.20;;;-0.30;99.90;;;;;;493973;237;27559;-70
2023/11/30 05:55:54;;;;;;;8.35;5.85;;;-0.30;99.90;;;;;;493964;241;27522;-72
2023/11/30 05:57:55;;;;;;;7.22;4.87;;;-0.30;99.90;;;;;;493985;241;27492;-73
2023/11/30 05:59:56;;;;;;;8.27;4.55;;;-0.30;99.90;;;;;;493984;241;27471;-71
2023/11/30 06:01:59;;;;;;;6.20;4.43;;;-0.40;99.90;;;;;;493981;241;27516;-72
2023/11/30 06:03:59;;;;;;;5.70;4.30;;;-0.50;99.90;;;;;;493877;241;27483;-71
2023/11/30 06:06:00;;;;;;;4.18;3.55;;;-0.40;99.90;;;;;;493973;241;27595;-71
2023/11/30 06:08:01;;;;;;;3.92;3.40;;;-0.40;99.90;;;;;;493992;241;28048;-71
2023/11/30 06:10:03;;;;;;;6.03;3.97;;;-0.40;99.90;;;;;;494066;237;27942;-71
2023/11/30 06:12:04;;;;;;;4.05;3.65;;;-0.40;99.90;;;;;;493978;241;27973;-71
2023/11/30 06:14:06;;;;;;;6.55;4.50;;;-0.40;99.90;;;;;;493991;241;27605;-71
2023/11/30 06:16:06;;;;;;;13.73;5.85;;;-0.50;99.90;;;;;;493971;241;27577;-71
2023/11/30 06:18:08;;;;;;;6.80;4.85;;;-0.60;99.90;;;;;;494004;237;27509;-72
2023/11/30 06:20:10;;;;;;;10.60;5.00;;;-0.60;99.90;;;;;;494002;241;27457;-71
2023/11/30 06:22:10;;;;;;;5.97;3.70;;;-0.60;99.90;;;;;;493981;241;27553;-71
2023/11/30 06:24:11;;;;;;;4.53;4.10;;;-0.60;99.90;;;;;;493672;241;27501;-72
2023/11/30 06:26:13;;;;;;;5.37;3.50;;;-0.60;99.90;;;;;;494013;241;27545;-71
2023/11/30 06:28:14;;;;;;;4.62;3.60;;;-0.50;99.90;;;;;;494071;241;28016;-70
2023/11/30 06:30:15;;;;;;;3.65;3.20;;;-0.50;99.90;;;;;;494080;241;27946;-70
2023/11/30 06:32:16;;;;;;;7.20;3.50;;;-0.50;99.90;;;;;;494056;241;29093;-71
2023/11/30 06:34:18;;;;;;;5.00;3.70;;;-0.50;99.90;;;;;;494096;241;27545;-74
2023/11/30 06:36:19;;;;;;;3.37;3.17;;;-0.50;99.90;;;;;;494061;241;27476;-71
2023/11/30 06:38:20;;;;;;;4.57;4.15;;;-0.60;99.90;;;;;;494019;241;27565;-72
2023/11/30 06:40:21;;;;;;;7.07;4.87;;;-0.60;99.90;;;;;;494098;241;27497;-72
2023/11/30 06:42:23;;;;;;;5.75;4.55;;;-0.50;99.90;;;;;;494015;241;27469;-71
2023/11/30 06:44:25;;;;;;;4.20;3.80;;;-0.50;99.90;;;;;;494064;241;27552;-73
2023/11/30 06:46:25;;;;;;;6.53;3.75;;;-0.60;99.90;;;;;;493960;241;27896;-71
2023/11/30 06:48:26;;;;;;;6.65;3.40;;;-0.60;99.90;;;;;;493959;241;27967;-71
2023/11/30 06:50:28;;;;;;;3.90;3.53;;;-0.60;99.90;;;;;;493992;241;28020;-71
2023/11/30 06:52:29;;;;;;;4.53;3.87;;;-0.60;99.90;;;;;;493984;241;27458;-71
2023/11/30 06:54:30;;;;;;;4.53;4.12;;;-0.60;99.90;;;;;;493998;241;27529;-71
2023/11/30 06:56:31;;;;;;;4.20;3.90;;;-0.60;99.90;;;;;;494001;241;27559;-71
2023/11/30 06:58:33;;;;;;;5.40;3.87;;;-0.60;99.90;;;;;;494003;241;27506;-71
2023/11/30 07:00:35;;;;;;;3.83;3.42;;;-0.60;99.90;;;;;;494021;241;27535;-72
2023/11/30 07:02:35;;;;;;;3.85;3.50;;;-0.60;99.90;;;;;;494008;241;27474;-71
2023/11/30 07:04:36;;;;;;;3.62;3.30;;;-0.60;99.90;;;;;;493999;241;27578;-71
2023/11/30 07:06:38;;;;;;;4.95;4.10;;;-0.60;99.90;;;;;;494001;241;28750;-71
2023/11/30 07:08:39;;;;;;;4.20;3.80;;;-0.60;99.90;;;;;;493917;241;28329;-70
2023/11/30 07:10:40;;;;;;;4.30;3.40;;;-0.60;99.90;;;;;;494037;241;28023;-71
2023/11/30 07:12:41;;;;;;;4.10;3.80;;;-0.60;99.90;;;;;;493904;241;27446;-71
2023/11/30 07:14:43;;;;;;;5.93;3.72;;;-0.60;99.90;;;;;;494055;241;27522;-71
2023/11/30 07:16:44;;;;;;;4.53;3.58;;;-0.60;99.90;;;;;;494094;241;27517;-73
2023/11/30 07:18:45;;;;;;;6.12;4.20;;;-0.50;99.90;;;;;;494078;241;27463;-71
2023/11/30 07:20:46;;;;;;;4.87;3.67;;;-0.50;99.90;;;;;;494088;241;27513;-71
2023/11/30 07:22:48;;;;;;;5.10;4.07;;;-0.50;99.90;;;;;;494073;241;27465;-71
2023/11/30 07:24:49;;;;;;;7.45;3.75;;;-0.50;99.90;;;;;;494086;241;27509;-71
2023/11/30 07:26:50;;;;;;;5.60;4.35;;;-0.60;99.90;;;;;;494132;241;28056;-73
2023/11/30 07:28:52;;;;;;;5.12;3.72;;;-0.50;99.90;;;;;;494085;241;27934;-72
2023/11/30 07:30:53;;;;;;;4.03;3.47;;;-0.50;99.90;;;;;;494084;241;28117;-71
2023/11/30 07:32:54;;;;;;;5.03;4.10;;;-0.50;99.90;;;;;;494088;241;27469;-71
2023/11/30 07:34:55;;;;;;;4.50;3.95;;;-0.50;99.90;;;;;;494084;241;27505;-71
2023/11/30 07:36:57;;;;;;;5.62;5.00;;;-0.60;99.90;;;;;;494072;239;27502;-72
2023/11/30 07:38:58;;;;;;;5.40;4.22;;;-0.60;99.90;;;;;;494017;241;27485;-71
2023/11/30 07:40:59;;;;;;;6.50;5.90;;;-0.60;99.90;;;;;;494079;241;27521;-71
2023/11/30 07:43:00;;;;;;;6.35;4.80;;;-0.60;99.90;;;;;;494062;241;27508;-71
2023/11/30 07:45:04;;;;;;;8.93;5.65;;;-0.50;99.90;;;;;;494069;241;27490;-71
2023/11/30 07:47:06;;;;;;;6.20;5.60;;;-0.50;99.90;;;;;;494008;241;28987;-71
2023/11/30 07:49:07;;;;;;;6.85;4.80;;;-0.50;99.90;;;;;;494016;241;28161;-72
2023/11/30 07:51:08;;;;;;;4.50;4.10;;;-0.50;99.90;;;;;;493967;241;29078;-71
2023/11/30 07:53:10;;;;;;;5.12;4.62;;;-0.50;99.90;;;;;;493986;239;27555;-71
2023/11/30 07:55:11;;;;;;;4.50;4.10;;;-0.40;99.90;;;;;;493994;241;27505;-72
2023/11/30 07:57:12;;;;;;;8.90;5.43;;;-0.40;99.90;;;;;;493990;241;27453;-71
2023/11/30 07:59:13;;;;;;;6.35;5.50;;;-0.40;99.90;;;;;;493984;241;27497;-71
2023/11/30 08:01:15;;;;;;;13.45;8.30;;;-0.30;99.90;;;;;;494056;241;27500;-72
2023/11/30 08:03:16;;;;;;;15.65;11.32;;;-0.30;99.90;;;;;;494066;241;27470;-71
2023/11/30 08:05:19;;;;;;;17.67;12.15;;;-0.20;99.90;;;;;;494058;241;27975;-71
2023/11/30 08:07:18;;;;;;;16.65;12.55;;;-0.20;99.90;;;;;;493955;241;29015;-70
2023/11/30 08:09:20;;;;;;;13.40;9.20;;;-0.20;99.90;;;;;;494022;241;27510;-73
2023/11/30 08:11:21;;;;;;;9.50;7.55;;;-0.10;99.90;;;;;;493976;241;27561;-71
2023/11/30 08:13:22;;;;;;;8.68;7.03;;;-0.10;99.90;;;;;;494055;241;27482;-72
2023/11/30 08:15:23;;;;;;;9.95;6.75;;;-0.10;99.90;;;;;;493969;241;27575;-72
2023/11/30 08:17:25;;;;;;;8.27;6.78;;;-0.10;99.90;;;;;;493972;241;27548;-71
2023/11/30 08:19:26;;;;;;;7.85;6.78;;;-0.10;99.90;;;;;;494080;241;27504;-71
2023/11/30 08:21:27;;;;;;;10.20;7.00;;;-0.10;99.90;;;;;;494069;241;27529;-72
2023/11/30 08:23:28;;;;;;;7.95;6.30;;;0.00;99.90;;;;;;493978;241;27955;-71
2023/11/30 08:25:30;;;;;;;8.48;6.35;;;0.00;99.90;;;;;;494014;241;28004;-72
2023/11/30 08:27:33;;;;;;;8.50;5.40;;;0.00;99.90;;;;;;493995;241;27957;-71
2023/11/30 08:29:32;;;;;;;13.95;8.55;;;0.00;99.90;;;;;;493826;241;27478;-72
2023/11/30 08:31:36;;;;;;;9.85;7.30;;;0.00;99.90;;;;;;494100;241;27616;-72
2023/11/30 08:33:35;;;;;;;11.27;8.10;;;0.10;99.90;;;;;;493869;241;27535;-72
2023/11/30 08:35:37;;;;;;;8.70;7.90;;;0.20;99.90;;;;;;494058;241;27600;-71
2023/11/30 08:37:37;;;;;;;8.07;6.55;;;0.30;99.90;;;;;;494032;241;27864;-71
2023/11/30 08:39:38;;;;;;;8.00;5.80;;;0.40;99.90;;;;;;494094;241;27606;-72
2023/11/30 08:41:40;;;;;;;7.05;6.22;;;0.40;99.90;;;;;;494088;241;27601;-73
2023/11/30 08:43:41;;;;;;;7.20;5.80;;;0.40;99.90;;;;;;494063;241;27524;-72
2023/11/30 08:45:42;;;;;;;8.75;7.05;;;0.40;99.90;;;;;;493953;241;27518;-72
2023/11/30 08:47:43;;;;;;;7.03;6.25;;;0.50;99.90;;;;;;494008;241;27538;-74
2023/11/30 08:49:45;;;;;;;8.23;6.22;;;0.50;99.90;;;;;;494022;241;27917;-71
2023/11/30 08:51:46;;;;;;;6.90;5.72;;;0.50;99.90;;;;;;494055;241;28060;-72
2023/11/30 08:53:47;;;;;;;9.07;5.68;;;0.50;99.90;;;;;;493978;241;27973;-75
2023/11/30 08:55:48;;;;;;;6.65;5.50;;;0.50;99.90;;;;;;493986;241;28025;-71
2023/11/30 08:57:50;;;;;;;9.05;6.45;;;0.50;99.90;;;;;;493987;241;27529;-72
2023/11/30 08:59:51;;;;;;;8.32;5.57;;;0.50;99.90;;;;;;493989;241;27497;-71
2023/11/30 09:01:52;;;;;;;10.07;7.35;;;0.60;99.90;;;;;;493964;241;27596;-72
2023/11/30 09:03:53;;;;;;;7.62;6.15;;;0.50;99.90;;;;;;494053;241;27462;-72
2023/11/30 09:05:55;;;;;;;8.57;5.97;;;0.50;99.90;;;;;;494090;241;27572;-72
2023/11/30 09:07:56;;;;;;;10.50;5.75;;;0.40;99.90;;;;;;494072;241;27607;-71
2023/11/30 09:09:58;;;;;;;10.50;7.10;;;0.50;99.90;;;;;;493971;241;27532;-71
2023/11/30 09:11:58;;;;;;;9.75;5.90;;;0.50;99.90;;;;;;493968;241;27497;-71
2023/11/30 09:14:00;;;;;;;7.15;5.90;;;0.60;99.90;;;;;;494084;241;27615;-72
2023/11/30 09:16:01;;;;;;;7.62;6.37;;;0.70;99.90;;;;;;493987;237;27994;-71
2023/11/30 09:18:03;;;;;;;13.95;6.62;;;0.80;99.90;;;;;;493965;241;27993;-72
2023/11/30 09:20:07;;;;;;;11.88;7.35;;;0.80;99.90;;;;;;493962;241;27906;-71
2023/11/30 09:22:05;;;;;;;10.43;6.70;;;0.90;99.90;;;;;;493662;241;27595;-71
2023/11/30 09:24:06;;;;;;;9.35;7.30;;;0.90;99.90;;;;;;493996;241;27513;-73
2023/11/30 09:26:07;;;;;;;9.77;7.32;;;0.90;99.90;;;;;;493982;241;27462;-71
2023/11/30 09:28:09;;;;;;;10.20;6.35;;;1.00;99.90;;;;;;494078;241;27528;-71
2023/11/30 09:30:10;;;;;;;7.90;6.25;;;1.00;99.90;;;;;;494015;241;27474;-71
2023/11/30 09:32:11;;;;;;;7.93;6.22;;;0.90;99.90;;;;;;494001;241;27513;-71
2023/11/30 09:34:12;;;;;;;7.15;6.18;;;0.90;99.90;;;;;;494060;241;27857;-72
2023/11/30 09:36:13;;;;;;;9.25;6.12;;;0.90;99.90;;;;;;494065;241;27474;-71
2023/11/30 09:38:15;;;;;;;8.80;6.47;;;1.00;99.90;;;;;;494070;241;27975;-71
2023/11/30 09:40:16;;;;;;;7.43;5.20;;;1.10;99.90;;;;;;493952;241;28041;-72
2023/11/30 09:42:18;;;;;;;7.90;5.22;;;1.10;99.90;;;;;;493995;241;27942;-71
2023/11/30 09:44:19;;;;;;;5.82;5.25;;;1.10;99.90;;;;;;493948;241;27540;-71
2023/11/30 09:46:20;;;;;;;5.62;5.03;;;1.10;99.90;;;;;;493940;241;27592;-71
2023/11/30 09:48:21;;;;;;;6.47;5.03;;;1.10;99.90;;;;;;493998;241;27597;-71
2023/11/30 09:50:22;;;;;;;6.00;5.20;;;1.10;99.90;;;;;;494001;241;27537;-74
2023/11/30 09:52:23;;;;;;;6.68;5.95;;;1.10;99.90;;;;;;493990;241;27597;-71
2023/11/30 09:54:25;;;;;;;6.97;5.75;;;1.10;99.90;;;;;;493979;241;27520;-71
2023/11/30 09:56:29;;;;;;;6.93;5.32;;;1.20;99.90;;;;;;494061;237;27488;-71
2023/11/30 09:58:30;;;;;;;7.47;5.90;;;1.20;99.90;;;;;;493980;241;27930;-71
2023/11/30 10:00:31;;;;;;;10.13;7.95;;;1.30;99.90;;;;;;494069;241;27516;-71
2023/11/30 10:02:33;;;;;;;10.00;7.30;;;1.30;99.90;;;;;;494022;241;27537;-73
2023/11/30 10:04:34;;;;;;;9.40;6.75;;;1.40;99.90;;;;;;494087;241;27473;-71
2023/11/30 10:06:35;;;;;;;9.02;5.50;;;1.40;99.90;;;;;;494138;241;27619;-71
2023/11/30 10:08:37;;;;;;;4.65;4.25;;;1.40;99.90;;;;;;494083;241;27477;-71
2023/11/30 10:10:37;;;;;;;5.28;4.62;;;1.40;99.90;;;;;;494092;241;27492;-72
2023/11/30 10:12:39;;;;;;;4.90;4.40;;;1.50;99.90;;;;;;494048;241;27528;-72
2023/11/30 10:14:40;;;;;;;6.55;5.10;;;1.50;99.90;;;;;;494025;241;27502;-71
2023/11/30 10:16:41;;;;;;;4.53;4.12;;;1.60;99.90;;;;;;493986;241;27516;-71
2023/11/30 10:18:42;;;;;;;6.28;5.45;;;1.60;99.90;;;;;;494007;241;28022;-71
2023/11/30 10:20:44;;;;;;;6.12;5.50;;;1.60;99.90;;;;;;494035;241;27965;-72
2023/11/30 10:22:45;;;;;;;5.70;5.20;;;1.70;99.90;;;;;;494130;241;27975;-72
2023/11/30 10:24:46;;;;;;;6.40;5.20;;;1.70;99.90;;;;;;494117;241;27937;-72
2023/11/30 10:26:47;;;;;;;7.37;5.80;;;1.80;99.90;;;;;;493852;241;27500;-71
2023/11/30 10:28:49;;;;;;;6.62;5.55;;;1.90;99.90;;;;;;494160;241;27511;-73
2023/11/30 10:30:50;;;;;;;6.45;5.28;;;1.90;99.90;;;;;;494143;241;27466;-71
2023/11/30 10:32:51;;;;;;;5.75;5.07;;;2.00;99.90;;;;;;494113;241;27589;-71